PRIVATE WETTERSTATION BILLIGHEIM-ALLFELD                       ZURCK
Wetterdaten: Dienstag, 22.02.2022
Datum Zeit Temp. A. Temp. A. min Temp. A. max Feuchte A. Luftdruck Regen Wind Richtung Richtung Sonnenschein ET Solar Taupunkt Windchill Windben Empfang
22.02.2022 00:00 4,8 C 4,8 C 4,8 C 83 % 1013,4 hPa 0,0 l/m 8,0 km/h (2 Bft) W 270 0 min 0,025 mm 0 W/m 2,2 C 3,4 C 29,0 km/h (5 Bft) 100 %
22.02.2022 00:10 4,7 C 4,7 C 4,8 C 85 % 1013,6 hPa 0,0 l/m 1,6 km/h (1 Bft) W-SW 247 0 min 0,000 mm 0 W/m 2,4 C 4,7 C 19,3 km/h (3 Bft) 100 %
22.02.2022 00:20 4,6 C 4,6 C 4,7 C 85 % 1013,6 hPa 0,0 l/m 1,6 km/h (1 Bft) W-SW 247 0 min 0,000 mm 0 W/m 2,3 C 4,6 C 17,7 km/h (3 Bft) 100 %
22.02.2022 00:30 4,6 C 4,6 C 4,6 C 86 % 1014,0 hPa 0,2 l/m 4,8 km/h (1 Bft) W 270 0 min 0,000 mm 0 W/m 2,5 C 4,6 C 38,6 km/h (5 Bft) 100 %
22.02.2022 00:40 4,6 C 4,6 C 4,6 C 86 % 1014,0 hPa 0,0 l/m 17,7 km/h (3 Bft) W 270 0 min 0,000 mm 0 W/m 2,5 C -2,7 C 38,6 km/h (5 Bft) 100 %
22.02.2022 00:50 4,6 C 4,6 C 4,6 C 86 % 1014,3 hPa 0,0 l/m 12,9 km/h (3 Bft) W 270 0 min 0,000 mm 0 W/m 2,5 C -0,2 C 29,0 km/h (5 Bft) 100 %
22.02.2022 01:00 4,6 C 4,6 C 4,6 C 86 % 1014,2 hPa 0,0 l/m 11,3 km/h (2 Bft) W 270 0 min 0,025 mm 0 W/m 2,5 C 0,7 C 27,4 km/h (4 Bft) 100 %
22.02.2022 01:10 4,7 C 4,6 C 4,7 C 85 % 1014,2 hPa 0,0 l/m 9,7 km/h (2 Bft) W 270 0 min 0,000 mm 0 W/m 2,4 C 2,0 C 27,4 km/h (4 Bft) 100 %
22.02.2022 01:20 4,8 C 4,7 C 4,8 C 84 % 1014,4 hPa 0,0 l/m 12,9 km/h (3 Bft) W 270 0 min 0,000 mm 0 W/m 2,3 C -0,0 C 27,4 km/h (4 Bft) 100 %
22.02.2022 01:30 4,8 C 4,8 C 4,8 C 84 % 1014,6 hPa 0,0 l/m 11,3 km/h (2 Bft) W 270 0 min 0,000 mm 0 W/m 2,3 C 1,0 C 27,4 km/h (4 Bft) 91 %
22.02.2022 01:40 4,8 C 4,8 C 4,9 C 83 % 1014,9 hPa 0,0 l/m 11,3 km/h (2 Bft) W-NW 292 0 min 0,000 mm 0 W/m 2,2 C 1,0 C 32,2 km/h (5 Bft) 100 %
22.02.2022 01:50 4,8 C 4,8 C 4,8 C 83 % 1015,2 hPa 0,0 l/m 8,0 km/h (2 Bft) W 270 0 min 0,000 mm 0 W/m 2,2 C 3,4 C 32,2 km/h (5 Bft) 100 %
22.02.2022 02:00 4,8 C 4,8 C 4,8 C 82 % 1015,4 hPa 0,0 l/m 6,4 km/h (2 Bft) W 270 0 min 0,025 mm 0 W/m 2,0 C 4,8 C 20,9 km/h (4 Bft) 100 %
22.02.2022 02:10 4,7 C 4,7 C 4,8 C 83 % 1015,6 hPa 0,0 l/m 3,2 km/h (1 Bft) W 270 0 min 0,000 mm 0 W/m 2,1 C 4,7 C 22,5 km/h (4 Bft) 100 %
22.02.2022 02:20 4,6 C 4,6 C 4,7 C 83 % 1015,6 hPa 0,0 l/m 4,8 km/h (1 Bft) W 270 0 min 0,000 mm 0 W/m 2,0 C 4,6 C 19,3 km/h (3 Bft) 100 %
22.02.2022 02:30 4,6 C 4,6 C 4,6 C 83 % 1015,7 hPa 0,0 l/m 6,4 km/h (2 Bft) W 270 0 min 0,000 mm 0 W/m 2,0 C 4,6 C 22,5 km/h (4 Bft) 100 %
22.02.2022 02:40 4,6 C 4,6 C 4,6 C 82 % 1015,7 hPa 0,0 l/m 11,3 km/h (2 Bft) W-NW 292 0 min 0,000 mm 0 W/m 1,8 C 0,7 C 29,0 km/h (5 Bft) 100 %
22.02.2022 02:50 4,6 C 4,6 C 4,7 C 82 % 1015,7 hPa 0,0 l/m 14,5 km/h (3 Bft) W 270 0 min 0,000 mm 0 W/m 1,8 C -1,1 C 29,0 km/h (5 Bft) 100 %
22.02.2022 03:00 4,6 C 4,6 C 4,7 C 82 % 1015,9 hPa 0,0 l/m 11,3 km/h (2 Bft) W 270 0 min 0,025 mm 0 W/m 1,8 C 0,7 C 30,6 km/h (5 Bft) 100 %
22.02.2022 03:10 4,6 C 4,6 C 4,6 C 82 % 1016,3 hPa 0,0 l/m 9,7 km/h (2 Bft) W 270 0 min 0,000 mm 0 W/m 1,8 C 1,8 C 32,2 km/h (5 Bft) 99 %
22.02.2022 03:20 4,5 C 4,5 C 4,6 C 82 % 1016,5 hPa 0,0 l/m 6,4 km/h (2 Bft) W 270 0 min 0,000 mm 0 W/m 1,7 C 4,5 C 25,7 km/h (4 Bft) 100 %
22.02.2022 03:30 4,4 C 4,4 C 4,5 C 82 % 1016,6 hPa 0,0 l/m 6,4 km/h (2 Bft) W 270 0 min 0,000 mm 0 W/m 1,6 C 4,4 C 24,1 km/h (4 Bft) 89 %
22.02.2022 03:40 4,4 C 4,4 C 4,4 C 83 % 1016,7 hPa 0,0 l/m 9,7 km/h (2 Bft) W 270 0 min 0,000 mm 0 W/m 1,8 C 1,6 C 30,6 km/h (5 Bft) 100 %
22.02.2022 03:50 4,3 C 4,3 C 4,4 C 84 % 1016,8 hPa 0,0 l/m 8,0 km/h (2 Bft) W 270 0 min 0,000 mm 0 W/m 1,8 C 2,9 C 27,4 km/h (4 Bft) 100 %
22.02.2022 04:00 4,2 C 4,2 C 4,3 C 84 % 1016,8 hPa 0,0 l/m 9,7 km/h (2 Bft) W 270 0 min 0,025 mm 0 W/m 1,7 C 1,4 C 25,7 km/h (4 Bft) 100 %
22.02.2022 04:10 4,2 C 4,2 C 4,2 C 84 % 1016,9 hPa 0,0 l/m 11,3 km/h (2 Bft) W 270 0 min 0,000 mm 0 W/m 1,7 C 0,3 C 29,0 km/h (5 Bft) 100 %
22.02.2022 04:20 4,1 C 4,1 C 4,2 C 83 % 1017,0 hPa 0,0 l/m 11,3 km/h (2 Bft) W-NW 292 0 min 0,000 mm 0 W/m 1,5 C 0,2 C 24,1 km/h (4 Bft) 100 %
22.02.2022 04:30 4,1 C 4,1 C 4,1 C 83 % 1017,3 hPa 0,0 l/m 9,7 km/h (2 Bft) W-NW 292 0 min 0,000 mm 0 W/m 1,5 C 1,3 C 24,1 km/h (4 Bft) 100 %
22.02.2022 04:40 4,1 C 4,1 C 4,1 C 83 % 1017,4 hPa 0,0 l/m 8,0 km/h (2 Bft) W 270 0 min 0,000 mm 0 W/m 1,5 C 2,7 C 24,1 km/h (4 Bft) 100 %
22.02.2022 04:50 4,2 C 4,1 C 4,2 C 84 % 1017,6 hPa 0,0 l/m 3,2 km/h (1 Bft) W 270 0 min 0,000 mm 0 W/m 1,7 C 4,2 C 19,3 km/h (3 Bft) 100 %
22.02.2022 05:00 4,1 C 4,1 C 4,2 C 85 % 1017,9 hPa 0,0 l/m 6,4 km/h (2 Bft) W 270 0 min 0,025 mm 0 W/m 1,8 C 4,1 C 22,5 km/h (4 Bft) 100 %
22.02.2022 05:10 4,1 C 4,1 C 4,1 C 85 % 1018,1 hPa 0,0 l/m 4,8 km/h (1 Bft) W 270 0 min 0,000 mm 0 W/m 1,8 C 4,1 C 20,9 km/h (4 Bft) 100 %
22.02.2022 05:20 4,1 C 4,1 C 4,1 C 85 % 1018,4 hPa 0,2 l/m 14,5 km/h (3 Bft) W 270 0 min 0,000 mm 0 W/m 1,8 C -1,7 C 33,8 km/h (5 Bft) 89 %
22.02.2022 05:30 3,7 C 3,7 C 4,1 C 86 % 1018,4 hPa 0,2 l/m 11,3 km/h (2 Bft) NW 315 0 min 0,000 mm 0 W/m 1,6 C -0,3 C 33,8 km/h (5 Bft) 99 %
22.02.2022 05:40 3,4 C 3,4 C 3,6 C 87 % 1018,5 hPa 0,0 l/m 3,2 km/h (1 Bft) W 270 0 min 0,000 mm 0 W/m 1,4 C 3,4 C 16,1 km/h (3 Bft) 100 %
22.02.2022 05:50 3,4 C 3,3 C 3,4 C 86 % 1018,6 hPa 0,0 l/m 6,4 km/h (2 Bft) W 270 0 min 0,000 mm 0 W/m 1,3 C 3,4 C 22,5 km/h (4 Bft) 100 %
22.02.2022 06:00 3,6 C 3,4 C 3,6 C 86 % 1018,6 hPa 0,0 l/m 8,0 km/h (2 Bft) W 270 0 min 0,025 mm 0 W/m 1,5 C 2,1 C 25,7 km/h (4 Bft) 100 %
22.02.2022 06:10 3,6 C 3,6 C 3,6 C 86 % 1018,7 hPa 0,0 l/m 6,4 km/h (2 Bft) W-SW 247 0 min 0,000 mm 0 W/m 1,5 C 3,6 C 19,3 km/h (3 Bft) 100 %
22.02.2022 06:20 3,6 C 3,6 C 3,7 C 86 % 1018,8 hPa 0,0 l/m 3,2 km/h (1 Bft) W 270 0 min 0,000 mm 0 W/m 1,5 C 3,6 C 20,9 km/h (4 Bft) 100 %
22.02.2022 06:30 3,6 C 3,6 C 3,7 C 85 % 1019,0 hPa 0,0 l/m 9,7 km/h (2 Bft) W 270 0 min 0,000 mm 0 W/m 1,3 C 0,8 C 25,7 km/h (4 Bft) 100 %
22.02.2022 06:40 3,6 C 3,6 C 3,6 C 84 % 1018,9 hPa 0,0 l/m 9,7 km/h (2 Bft) W 270 0 min 0,000 mm 0 W/m 1,2 C 0,8 C 29,0 km/h (5 Bft) 100 %
22.02.2022 06:50 3,5 C 3,5 C 3,6 C 84 % 1019,0 hPa 0,0 l/m 8,0 km/h (2 Bft) W-NW 292 0 min 0,000 mm 0 W/m 1,1 C 2,0 C 25,7 km/h (4 Bft) 100 %
22.02.2022 07:00 3,4 C 3,4 C 3,5 C 84 % 1019,4 hPa 0,0 l/m 3,2 km/h (1 Bft) W 270 0 min 0,025 mm 0 W/m 1,0 C 3,4 C 24,1 km/h (4 Bft) 90 %
22.02.2022 07:10 3,4 C 3,3 C 3,4 C 85 % 1019,6 hPa 0,0 l/m 6,4 km/h (2 Bft) W 270 0 min 0,000 mm 0 W/m 1,1 C 3,4 C 17,7 km/h (3 Bft) 100 %
22.02.2022 07:20 3,5 C 3,4 C 3,5 C 85 % 1019,5 hPa 0,0 l/m 4,8 km/h (1 Bft) W-SW 247 0 min 0,000 mm 0 W/m 1,2 C 3,5 C 19,3 km/h (3 Bft) 100 %
22.02.2022 07:30 3,5 C 3,4 C 3,5 C 86 % 1019,5 hPa 0,0 l/m 8,0 km/h (2 Bft) W 270 0 min 0,000 mm 7 W/m 1,4 C 2,0 C 24,1 km/h (4 Bft) 100 %
22.02.2022 07:40 3,5 C 3,5 C 3,5 C 85 % 1019,5 hPa 0,0 l/m 9,7 km/h (2 Bft) W 270 0 min 0,000 mm 11 W/m 1,2 C 0,6 C 29,0 km/h (5 Bft) 100 %
22.02.2022 07:50 3,4 C 3,4 C 3,5 C 85 % 1019,6 hPa 0,0 l/m 14,5 km/h (3 Bft) W-NW 292 0 min 0,000 mm 14 W/m 1,1 C -2,6 C 37,0 km/h (5 Bft) 99 %
22.02.2022 08:00 3,5 C 3,4 C 3,5 C 85 % 1019,9 hPa 0,0 l/m 14,5 km/h (3 Bft) W-NW 292 0 min 0,025 mm 18 W/m 1,2 C -2,5 C 32,2 km/h (5 Bft) 100 %
22.02.2022 08:10 3,4 C 3,4 C 3,5 C 85 % 1020,1 hPa 0,0 l/m 11,3 km/h (2 Bft) W-NW 292 0 min 0,000 mm 28 W/m 1,1 C -0,6 C 25,7 km/h (4 Bft) 100 %
22.02.2022 08:20 3,5 C 3,4 C 3,5 C 85 % 1020,5 hPa 0,0 l/m 6,4 km/h (2 Bft) W-NW 292 0 min 0,000 mm 42 W/m 1,2 C 3,5 C 27,4 km/h (4 Bft) 100 %
22.02.2022 08:30 3,7 C 3,5 C 3,7 C 85 % 1020,8 hPa 0,0 l/m 8,0 km/h (2 Bft) W 270 0 min 0,000 mm 56 W/m 1,4 C 2,2 C 24,1 km/h (4 Bft) 97 %
22.02.2022 08:40 3,8 C 3,7 C 3,8 C 85 % 1020,9 hPa 0,0 l/m 9,7 km/h (2 Bft) W 270 0 min 0,000 mm 74 W/m 1,5 C 1,0 C 25,7 km/h (4 Bft) 93 %
22.02.2022 08:50 4,0 C 3,8 C 4,0 C 84 % 1021,0 hPa 0,0 l/m 8,0 km/h (2 Bft) W-NW 292 10 min 0,000 mm 169 W/m 1,5 C 2,6 C 29,0 km/h (5 Bft) 100 %
22.02.2022 09:00 4,5 C 4,0 C 4,5 C 83 % 1021,1 hPa 0,0 l/m 8,0 km/h (2 Bft) W 270 10 min 0,051 mm 216 W/m 1,9 C 3,1 C 30,6 km/h (5 Bft) 100 %
22.02.2022 09:10 5,1 C 4,5 C 5,1 C 82 % 1021,3 hPa 0,0 l/m 4,8 km/h (1 Bft) W 270 10 min 0,000 mm 257 W/m 2,3 C 5,1 C 17,7 km/h (3 Bft) 100 %
22.02.2022 09:20 5,3 C 5,1 C 5,3 C 81 % 1021,5 hPa 0,0 l/m 9,7 km/h (2 Bft) W 270 10 min 0,000 mm 288 W/m 2,3 C 2,6 C 27,4 km/h (4 Bft) 100 %
22.02.2022 09:30 5,1 C 5,1 C 5,3 C 81 % 1021,6 hPa 0,0 l/m 12,9 km/h (3 Bft) W 270 10 min 0,000 mm 239 W/m 2,1 C 0,3 C 30,6 km/h (5 Bft) 100 %
22.02.2022 09:40 4,8 C 4,8 C 5,1 C 82 % 1021,8 hPa 0,0 l/m 12,9 km/h (3 Bft) W 270 0 min 0,000 mm 134 W/m 2,0 C -0,0 C 30,6 km/h (5 Bft) 100 %
22.02.2022 09:50 4,8 C 4,7 C 4,8 C 82 % 1022,0 hPa 0,0 l/m 11,3 km/h (2 Bft) W 270 10 min 0,000 mm 204 W/m 2,0 C 1,0 C 32,2 km/h (5 Bft) 100 %
22.02.2022 10:00 5,0 C 4,8 C 5,0 C 81 % 1022,1 hPa 0,0 l/m 11,3 km/h (2 Bft) W 270 10 min 0,076 mm 278 W/m 2,0 C 1,2 C 25,7 km/h (4 Bft) 100 %
22.02.2022 10:10 5,2 C 4,9 C 5,2 C 82 % 1022,2 hPa 0,0 l/m 8,0 km/h (2 Bft) W 270 10 min 0,000 mm 396 W/m 2,4 C 3,8 C 24,1 km/h (4 Bft) 100 %
22.02.2022 10:20 5,3 C 5,2 C 5,4 C 80 % 1022,2 hPa 0,0 l/m 8,0 km/h (2 Bft) W 270 10 min 0,000 mm 299 W/m 2,1 C 3,9 C 29,0 km/h (5 Bft) 100 %
22.02.2022 10:30 5,6 C 5,3 C 5,6 C 80 % 1022,3 hPa 0,0 l/m 11,3 km/h (2 Bft) W 270 10 min 0,000 mm 494 W/m 2,4 C 1,9 C 29,0 km/h (5 Bft) 100 %
22.02.2022 10:40 5,8 C 5,6 C 5,8 C 79 % 1022,4 hPa 0,0 l/m 11,3 km/h (2 Bft) W 270 10 min 0,000 mm 577 W/m 2,4 C 2,1 C 30,6 km/h (5 Bft) 100 %
22.02.2022 10:50 5,9 C 5,8 C 5,9 C 79 % 1022,3 hPa 0,0 l/m 8,0 km/h (2 Bft) W 270 10 min 0,000 mm 404 W/m 2,5 C 4,5 C 19,3 km/h (3 Bft) 99 %
22.02.2022 11:00 5,9 C 5,8 C 5,9 C 79 % 1022,3 hPa 0,0 l/m 8,0 km/h (2 Bft) W 270 10 min 0,127 mm 216 W/m 2,5 C 4,5 C 22,5 km/h (4 Bft) 100 %
22.02.2022 11:10 5,9 C 5,8 C 5,9 C 79 % 1022,1 hPa 0,0 l/m 6,4 km/h (2 Bft) W-SW 247 10 min 0,000 mm 229 W/m 2,5 C 5,9 C 25,7 km/h (4 Bft) 100 %
22.02.2022 11:20 6,1 C 5,9 C 6,1 C 80 % 1022,0 hPa 0,0 l/m 3,2 km/h (1 Bft) W 270 10 min 0,000 mm 253 W/m 2,9 C 6,1 C 17,7 km/h (3 Bft) 100 %
22.02.2022 11:30 6,2 C 6,1 C 6,2 C 79 % 1022,0 hPa 0,0 l/m 4,8 km/h (1 Bft) W-SW 247 10 min 0,000 mm 260 W/m 2,8 C 6,2 C 24,1 km/h (4 Bft) 100 %
22.02.2022 11:40 6,2 C 6,2 C 6,2 C 80 % 1022,0 hPa 0,0 l/m 6,4 km/h (2 Bft) SW 225 10 min 0,000 mm 207 W/m 3,0 C 6,2 C 19,3 km/h (3 Bft) 100 %
22.02.2022 11:50 6,3 C 6,2 C 6,3 C 79 % 1022,0 hPa 0,0 l/m 4,8 km/h (1 Bft) W-SW 247 10 min 0,000 mm 221 W/m 2,9 C 6,3 C 20,9 km/h (4 Bft) 99 %
22.02.2022 12:00 6,4 C 6,3 C 6,4 C 80 % 1022,0 hPa 0,0 l/m 4,8 km/h (1 Bft) W-SW 247 10 min 0,102 mm 229 W/m 3,2 C 6,4 C 20,9 km/h (4 Bft) 97 %
22.02.2022 12:10 6,6 C 6,4 C 6,6 C 79 % 1022,1 hPa 0,0 l/m 4,8 km/h (1 Bft) SW 225 10 min 0,000 mm 241 W/m 3,2 C 6,6 C 25,7 km/h (4 Bft) 98 %
22.02.2022 12:20 6,8 C 6,6 C 6,8 C 78 % 1021,9 hPa 0,0 l/m 9,7 km/h (2 Bft) W 270 10 min 0,000 mm 301 W/m 3,2 C 4,3 C 25,7 km/h (4 Bft) 97 %
22.02.2022 12:30 6,9 C 6,8 C 6,9 C 78 % 1021,9 hPa 0,0 l/m 6,4 km/h (2 Bft) W 270 10 min 0,000 mm 276 W/m 3,3 C 6,9 C 27,4 km/h (4 Bft) 97 %
22.02.2022 12:40 7,0 C 6,9 C 7,0 C 78 % 1021,6 hPa 0,0 l/m 8,0 km/h (2 Bft) W-SW 247 10 min 0,000 mm 276 W/m 3,4 C 5,7 C 20,9 km/h (4 Bft) 97 %
22.02.2022 12:50 7,0 C 7,0 C 7,0 C 78 % 1021,7 hPa 0,0 l/m 11,3 km/h (2 Bft) SW 225 10 min 0,000 mm 220 W/m 3,4 C 3,5 C 27,4 km/h (4 Bft) 97 %
22.02.2022 13:00 7,1 C 7,0 C 7,1 C 78 % 1021,4 hPa 0,0 l/m 6,4 km/h (2 Bft) W-SW 247 10 min 0,102 mm 178 W/m 3,5 C 7,1 C 25,7 km/h (4 Bft) 98 %
22.02.2022 13:10 7,2 C 7,1 C 7,2 C 77 % 1021,7 hPa 0,0 l/m 8,0 km/h (2 Bft) W-SW 247 10 min 0,000 mm 207 W/m 3,4 C 5,9 C 29,0 km/h (5 Bft) 97 %
22.02.2022 13:20 7,1 C 7,1 C 7,2 C 79 % 1021,8 hPa 0,0 l/m 11,3 km/h (2 Bft) W-SW 247 0 min 0,000 mm 137 W/m 3,7 C 3,6 C 38,6 km/h (5 Bft) 98 %
22.02.2022 13:30 7,0 C 7,0 C 7,1 C 80 % 1022,0 hPa 0,0 l/m 11,3 km/h (2 Bft) SW 225 0 min 0,000 mm 142 W/m 3,8 C 3,5 C 38,6 km/h (5 Bft) 97 %
22.02.2022 13:40 6,9 C 6,9 C 7,0 C 81 % 1021,8 hPa 0,0 l/m 9,7 km/h (2 Bft) W-SW 247 10 min 0,000 mm 200 W/m 3,9 C 4,4 C 25,7 km/h (4 Bft) 98 %
22.02.2022 13:50 6,9 C 6,9 C 6,9 C 80 % 1021,6 hPa 0,0 l/m 12,9 km/h (3 Bft) SW 225 10 min 0,000 mm 211 W/m 3,7 C 2,4 C 35,4 km/h (5 Bft) 98 %
22.02.2022 14:00 7,1 C 6,9 C 7,1 C 80 % 1021,1 hPa 0,0 l/m 12,9 km/h (3 Bft) SW 225 10 min 0,076 mm 248 W/m 3,9 C 2,7 C 33,8 km/h (5 Bft) 97 %
22.02.2022 14:10 7,1 C 7,1 C 7,1 C 79 % 1021,0 hPa 0,0 l/m 6,4 km/h (2 Bft) W-SW 247 10 min 0,000 mm 207 W/m 3,7 C 7,1 C 30,6 km/h (5 Bft) 98 %
22.02.2022 14:20 7,1 C 7,1 C 7,2 C 79 % 1021,2 hPa 0,0 l/m 9,7 km/h (2 Bft) SW 225 0 min 0,000 mm 127 W/m 3,7 C 4,6 C 25,7 km/h (4 Bft) 97 %
22.02.2022 14:30 7,2 C 7,1 C 7,2 C 79 % 1021,0 hPa 0,0 l/m 4,8 km/h (1 Bft) SW 225 0 min 0,000 mm 116 W/m 3,8 C 7,2 C 17,7 km/h (3 Bft) 97 %
22.02.2022 14:40 7,3 C 7,2 C 7,3 C 79 % 1021,1 hPa 0,0 l/m 6,4 km/h (2 Bft) W-SW 247 0 min 0,000 mm 111 W/m 3,9 C 7,3 C 22,5 km/h (4 Bft) 97 %
22.02.2022 14:50 7,3 C 7,3 C 7,3 C 78 % 1021,0 hPa 0,0 l/m 11,3 km/h (2 Bft) W-SW 247 0 min 0,000 mm 123 W/m 3,7 C 3,8 C 30,6 km/h (5 Bft) 98 %
22.02.2022 15:00 7,4 C 7,3 C 7,4 C 78 % 1020,9 hPa 0,0 l/m 8,0 km/h (2 Bft) W-SW 247 0 min 0,076 mm 127 W/m 3,8 C 6,1 C 30,6 km/h (5 Bft) 97 %
22.02.2022 15:20 7,4 C 7,3 C 7,4 C 78 % 1020,7 hPa 0,0 l/m 11,3 km/h (2 Bft) W 267 20 min 0,000 mm 216 W/m 3,8 C 3,9 C 35,4 km/h (5 Bft) 100 %
22.02.2022 15:30 7,5 C 7,4 C 7,5 C 78 % 1020,5 hPa 0,0 l/m 13,3 km/h (3 Bft) W-SW 243 0 min 0,000 mm 114 W/m 3,9 C 2,9 C 30,6 km/h (5 Bft) 99 %
22.02.2022 15:40 7,3 C 7,3 C 7,5 C 79 % 1020,4 hPa 0,0 l/m 15,9 km/h (3 Bft) W 277 0 min 0,000 mm 141 W/m 3,9 C 1,5 C 35,4 km/h (5 Bft) 100 %
22.02.2022 15:50 7,2 C 7,2 C 7,3 C 81 % 1020,5 hPa 0,0 l/m 17,1 km/h (3 Bft) W-SW 244 0 min 0,000 mm 69 W/m 4,2 C 0,8 C 40,2 km/h (6 Bft) 99 %
22.02.2022 16:00 7,0 C 7,0 C 7,2 C 82 % 1020,6 hPa 0,0 l/m 15,4 km/h (3 Bft) W-SW 254 0 min 0,000 mm 49 W/m 4,1 C 1,3 C 29,0 km/h (5 Bft) 100 %
22.02.2022 16:10 6,9 C 6,9 C 7,0 C 82 % 1020,4 hPa 0,0 l/m 9,8 km/h (2 Bft) SW 221 0 min 0,054 mm 37 W/m 4,0 C 4,3 C 24,1 km/h (4 Bft) 100 %
22.02.2022 16:20 6,9 C 6,9 C 6,9 C 82 % 1020,6 hPa 1,0 l/m 4,7 km/h (1 Bft) SW 223 0 min 0,000 mm 25 W/m 4,0 C 6,9 C 22,5 km/h (4 Bft) 100 %
22.02.2022 16:30 6,9 C 6,9 C 6,9 C 82 % 1020,3 hPa 0,0 l/m 9,3 km/h (2 Bft) S 180 0 min 0,000 mm 26 W/m 4,0 C 4,6 C 24,1 km/h (4 Bft) 96 %
22.02.2022 16:40 6,9 C 6,9 C 6,9 C 83 % 1020,2 hPa 0,1 l/m 12,9 km/h (3 Bft) SW 229 0 min 0,000 mm 28 W/m 4,2 C 2,4 C 30,6 km/h (5 Bft) 92 %
22.02.2022 16:50 6,7 C 6,7 C 6,9 C 84 % 1020,4 hPa 0,2 l/m 10,6 km/h (2 Bft) W-SW 238 0 min 0,000 mm 19 W/m 4,2 C 3,6 C 32,2 km/h (5 Bft) 98 %
22.02.2022 17:00 6,4 C 6,4 C 6,7 C 87 % 1020,4 hPa 0,2 l/m 12,8 km/h (3 Bft) W-SW 254 0 min 0,000 mm 18 W/m 4,4 C 1,9 C 32,2 km/h (5 Bft) 97 %
22.02.2022 17:10 6,1 C 6,1 C 6,4 C 88 % 1020,2 hPa 0,0 l/m 8,0 km/h (2 Bft) SW 233 0 min 0,025 mm 21 W/m 4,3 C 4,8 C 27,4 km/h (4 Bft) 98 %
22.02.2022 17:20 5,9 C 5,9 C 6,1 C 89 % 1019,9 hPa 0,0 l/m 8,9 km/h (2 Bft) S-SW 212 0 min 0,000 mm 7 W/m 4,2 C 3,9 C 25,7 km/h (4 Bft) 97 %
22.02.2022 17:30 5,8 C 5,8 C 5,9 C 89 % 1020,0 hPa 0,0 l/m 7,3 km/h (2 Bft) S-SW 198 0 min 0,000 mm 0 W/m 4,1 C 5,0 C 20,9 km/h (4 Bft) 98 %
22.02.2022 17:40 5,8 C 5,8 C 5,8 C 89 % 1020,1 hPa 0,0 l/m 12,1 km/h (2 Bft) W 269 0 min 0,000 mm 0 W/m 4,1 C 1,6 C 27,4 km/h (4 Bft) 98 %
22.02.2022 17:50 5,7 C 5,7 C 5,8 C 90 % 1020,2 hPa 0,0 l/m 7,3 km/h (2 Bft) W-SW 240 0 min 0,000 mm 0 W/m 4,2 C 4,9 C 29,0 km/h (5 Bft) 97 %
22.02.2022 18:00 5,7 C 5,7 C 5,7 C 90 % 1020,1 hPa 0,0 l/m 10,6 km/h (2 Bft) S-SW 213 0 min 0,000 mm 0 W/m 4,2 C 2,4 C 29,0 km/h (5 Bft) 98 %
22.02.2022 18:10 5,6 C 5,6 C 5,7 C 91 % 1020,3 hPa 0,0 l/m 6,8 km/h (2 Bft) SW 220 0 min 0,000 mm 0 W/m 4,2 C 5,3 C 20,9 km/h (4 Bft) 97 %
22.02.2022 18:20 5,5 C 5,5 C 5,6 C 91 % 1020,2 hPa 0,0 l/m 6,1 km/h (2 Bft) SW 229 0 min 0,000 mm 0 W/m 4,2 C 5,5 C 19,3 km/h (3 Bft) 98 %
22.02.2022 18:30 5,4 C 5,4 C 5,5 C 91 % 1020,2 hPa 0,0 l/m 7,2 km/h (2 Bft) S 180 0 min 0,000 mm 0 W/m 4,1 C 4,7 C 20,9 km/h (4 Bft) 97 %
22.02.2022 18:40 5,5 C 5,4 C 5,5 C 92 % 1020,3 hPa 0,0 l/m 10,2 km/h (2 Bft) S-SW 213 0 min 0,000 mm 0 W/m 4,3 C 2,5 C 22,5 km/h (4 Bft) 97 %
22.02.2022 18:50 5,5 C 5,4 C 5,5 C 91 % 1020,3 hPa 0,0 l/m 11,6 km/h (2 Bft) S-SW 210 0 min 0,000 mm 0 W/m 4,2 C 1,6 C 25,7 km/h (4 Bft) 97 %
22.02.2022 19:00 5,5 C 5,5 C 5,5 C 92 % 1020,3 hPa 0,0 l/m 7,0 km/h (2 Bft) S-SW 211 0 min 0,000 mm 0 W/m 4,3 C 5,0 C 22,5 km/h (4 Bft) 97 %
22.02.2022 19:10 5,5 C 5,5 C 5,5 C 91 % 1020,3 hPa 0,0 l/m 11,3 km/h (2 Bft) S-SW 196 0 min 0,000 mm 0 W/m 4,2 C 1,8 C 22,5 km/h (4 Bft) 98 %
22.02.2022 19:20 5,6 C 5,5 C 5,6 C 91 % 1020,2 hPa 0,0 l/m 6,9 km/h (2 Bft) SW 217 0 min 0,000 mm 0 W/m 4,2 C 5,2 C 19,3 km/h (3 Bft) 97 %
22.02.2022 19:30 5,6 C 5,6 C 5,6 C 91 % 1020,3 hPa 0,0 l/m 8,4 km/h (2 Bft) S-SW 205 0 min 0,000 mm 0 W/m 4,2 C 3,9 C 22,5 km/h (4 Bft) 97 %
22.02.2022 19:40 5,7 C 5,6 C 5,7 C 91 % 1020,0 hPa 0,0 l/m 10,2 km/h (2 Bft) S-SW 213 0 min 0,000 mm 0 W/m 4,3 C 2,7 C 24,1 km/h (4 Bft) 97 %
22.02.2022 19:50 5,7 C 5,6 C 5,7 C 91 % 1019,8 hPa 0,0 l/m 11,9 km/h (2 Bft) SW 221 0 min 0,000 mm 0 W/m 4,3 C 1,6 C 22,5 km/h (4 Bft) 98 %
22.02.2022 20:00 5,7 C 5,6 C 5,7 C 91 % 1019,8 hPa 0,0 l/m 13,3 km/h (3 Bft) S-SW 210 0 min 0,000 mm 0 W/m 4,3 C 0,8 C 27,4 km/h (4 Bft) 97 %
22.02.2022 20:10 5,8 C 5,7 C 5,8 C 91 % 1019,8 hPa 0,0 l/m 11,3 km/h (2 Bft) SW 230 0 min 0,000 mm 0 W/m 4,4 C 2,1 C 22,5 km/h (4 Bft) 97 %
22.02.2022 20:20 5,9 C 5,8 C 5,9 C 91 % 1019,7 hPa 0,0 l/m 12,7 km/h (3 Bft) SW 230 0 min 0,000 mm 0 W/m 4,5 C 1,4 C 27,4 km/h (4 Bft) 97 %
22.02.2022 20:30 6,0 C 5,9 C 6,0 C 90 % 1019,8 hPa 0,0 l/m 12,8 km/h (3 Bft) SW 225 0 min 0,000 mm 0 W/m 4,5 C 1,4 C 27,4 km/h (4 Bft) 97 %
22.02.2022 20:40 6,1 C 6,0 C 6,1 C 90 % 1019,7 hPa 0,0 l/m 12,8 km/h (3 Bft) SW 227 0 min 0,000 mm 0 W/m 4,6 C 1,6 C 32,2 km/h (5 Bft) 89 %
22.02.2022 20:50 6,2 C 6,1 C 6,2 C 90 % 1019,6 hPa 0,0 l/m 13,8 km/h (3 Bft) S-SW 211 0 min 0,000 mm 0 W/m 4,7 C 1,1 C 30,6 km/h (5 Bft) 98 %
22.02.2022 21:00 6,3 C 6,2 C 6,3 C 90 % 1019,8 hPa 0,0 l/m 12,4 km/h (3 Bft) SW 236 0 min 0,000 mm 0 W/m 4,8 C 2,0 C 29,0 km/h (5 Bft) 98 %
22.02.2022 21:10 6,3 C 6,3 C 6,3 C 90 % 1019,6 hPa 0,0 l/m 11,3 km/h (2 Bft) SW 225 0 min 0,000 mm 0 W/m 4,8 C 2,7 C 27,4 km/h (4 Bft) 100 %
22.02.2022 21:20 6,5 C 6,4 C 6,5 C 90 % 1019,6 hPa 0,0 l/m 9,7 km/h (2 Bft) SW 225 0 min 0,000 mm 0 W/m 5,0 C 3,9 C 32,2 km/h (5 Bft) 100 %
22.02.2022 21:30 6,6 C 6,5 C 6,6 C 90 % 1019,6 hPa 0,0 l/m 12,9 km/h (3 Bft) SW 225 0 min 0,000 mm 0 W/m 5,1 C 2,1 C 43,5 km/h (6 Bft) 100 %
22.02.2022 21:40 6,6 C 6,6 C 6,6 C 90 % 1019,6 hPa 0,0 l/m 17,7 km/h (3 Bft) SW 225 0 min 0,000 mm 0 W/m 5,1 C -0,2 C 46,7 km/h (6 Bft) 100 %
22.02.2022 21:50 6,6 C 6,6 C 6,6 C 91 % 1019,7 hPa 0,2 l/m 19,3 km/h (3 Bft) SW 225 0 min 0,000 mm 0 W/m 5,2 C -0,8 C 35,4 km/h (5 Bft) 79 %
22.02.2022 22:00 6,4 C 6,4 C 6,6 C 91 % 1019,7 hPa 0,2 l/m 12,9 km/h (3 Bft) SW 225 0 min 0,025 mm 0 W/m 5,0 C 1,9 C 38,6 km/h (5 Bft) 100 %
22.02.2022 22:10 6,4 C 6,4 C 6,4 C 91 % 1019,6 hPa 0,0 l/m 12,9 km/h (3 Bft) SW 225 0 min 0,000 mm 0 W/m 5,0 C 1,9 C 27,4 km/h (4 Bft) 100 %
22.02.2022 22:20 6,5 C 6,4 C 6,5 C 91 % 1019,7 hPa 0,2 l/m 14,5 km/h (3 Bft) SW 225 0 min 0,000 mm 0 W/m 5,1 C 1,1 C 32,2 km/h (5 Bft) 100 %
22.02.2022 22:30 6,6 C 6,5 C 6,6 C 91 % 1019,7 hPa 0,2 l/m 14,5 km/h (3 Bft) SW 225 0 min 0,000 mm 0 W/m 5,2 C 1,3 C 33,8 km/h (5 Bft) 100 %
22.02.2022 22:40 6,6 C 6,6 C 6,6 C 91 % 1019,7 hPa 0,0 l/m 11,3 km/h (2 Bft) SW 225 0 min 0,000 mm 0 W/m 5,2 C 3,0 C 30,6 km/h (5 Bft) 100 %
22.02.2022 22:50 6,7 C 6,6 C 6,7 C 91 % 1019,8 hPa 0,0 l/m 12,9 km/h (3 Bft) SW 225 0 min 0,000 mm 0 W/m 5,3 C 2,2 C 32,2 km/h (5 Bft) 100 %
22.02.2022 23:00 6,7 C 6,7 C 6,7 C 91 % 1019,8 hPa 0,0 l/m 9,7 km/h (2 Bft) SW 225 0 min 0,025 mm 0 W/m 5,3 C 4,2 C 32,2 km/h (5 Bft) 100 %
22.02.2022 23:10 6,8 C 6,7 C 6,8 C 91 % 1019,8 hPa 0,0 l/m 16,1 km/h (3 Bft) SW 225 0 min 0,000 mm 0 W/m 5,4 C 0,7 C 30,6 km/h (5 Bft) 91 %
22.02.2022 23:20 6,8 C 6,8 C 6,8 C 91 % 1019,8 hPa 0,0 l/m 14,5 km/h (3 Bft) W-SW 247 0 min 0,000 mm 0 W/m 5,4 C 1,5 C 40,2 km/h (6 Bft) 100 %
22.02.2022 23:30 6,8 C 6,8 C 6,9 C 91 % 1019,9 hPa 0,0 l/m 12,9 km/h (3 Bft) SW 225 0 min 0,000 mm 0 W/m 5,4 C 2,3 C 32,2 km/h (5 Bft) 100 %
22.02.2022 23:40 6,8 C 6,8 C 6,9 C 91 % 1020,1 hPa 0,0 l/m 16,1 km/h (3 Bft) SW 225 0 min 0,000 mm 0 W/m 5,4 C 0,7 C 41,8 km/h (6 Bft) 100 %
22.02.2022 23:50 6,8 C 6,8 C 6,9 C 91 % 1020,0 hPa 0,0 l/m 12,9 km/h (3 Bft) SW 225 0 min 0,000 mm 0 W/m 5,4 C 2,3 C 27,4 km/h (4 Bft) 100 %
_ Min-Zeit 05:50 05:50 05:50 13:10 00:00 - 00:10 - - - - - 07:00 00:40 05:40 21:50
Minimum _ 3,3 C 3,3 C 3,4 C 77 % 1013,4 hPa - 1,6 km/h (1 Bft) - - - - - 1,0 C -2,7 C 16,1 km/h (3 Bft) 79 %
_ Max-Zeit 15:30 15:30 15:30 18:40 10:40 16:20 21:50 - - 15:20 11:00 10:40 23:10 14:40 21:40 00:00
Maximum _ 7,5 C 7,4 C 7,5 C 92 % 1022,4 hPa 1,0 l/m 19,3 km/h
SW (3 Bft)
- - 20 min 0,127 mm 577 W/m 5,4 C 7,3 C 46,7 km/h
SW (6 Bft)
100 %
Durchschnitt _ 5,5 C 5,4 C 5,5 C 85 % 1019,4 hPa #2,9 l/m 9,6 km/h (2 Bft) W - #5:20 h #0,964 mm 170 W/m 3,1 C 2,9 C 27,5 km/h (4 Bft) 98 %
PRIVATE WETTERSTATION BILLIGHEIM-ALLFELD - www.neckar-odenwald-wetter.de - Holger Sonntag